Terminal Aerodrome Forecast
Issued by NWS

Home | Current Version | Previous Version | Graphics & Text | Print | Product List | Glossary On
Versions: 1 2 3 4 5 6 7 8 9 10 11 12 13 14 15 16 17 18 19 20 21 22 23 24
000
FTUS45 KGGW 180500
TAFGDV
TAF
KGDV 180521Z 1806/1906 14006KT P6SM SCT120 BKN200
     FM181900 23012G18KT P6SM VCSH SCT120 BKN200
     FM182300 27007KT P6SM VCSH BKN150
      AMD LTD TO CLD VIS AND WIND=

USA.gov is the U.S. government's official web portal to all federal, state and local government web resources and services.